createdAt,value
2023-11-30T00:00:35.318Z,4.50
2023-11-30T00:03:02.395Z,4.38
2023-11-30T00:05:29.376Z,4.32
2023-11-30T00:07:56.242Z,4.30
2023-11-30T00:10:23.131Z,4.26
2023-11-30T00:12:50.030Z,4.23
2023-11-30T00:15:16.961Z,4.22
2023-11-30T00:17:43.880Z,4.20
2023-11-30T00:20:12.519Z,4.17
2023-11-30T00:30:00.436Z,4.20
2023-11-30T00:32:27.421Z,4.21
2023-11-30T00:35:37.504Z,4.19
2023-11-30T00:38:04.992Z,4.18
2023-11-30T00:40:32.061Z,4.16
2023-11-30T00:43:05.563Z,4.05
2023-11-30T00:45:33.317Z,3.96
2023-11-30T00:48:01.242Z,3.91
2023-11-30T00:50:28.349Z,3.75
2023-11-30T00:52:59.760Z,3.69
2023-11-30T01:00:21.313Z,3.63
2023-11-30T01:02:48.442Z,3.63
2023-11-30T01:05:15.651Z,3.63
2023-11-30T01:07:42.750Z,3.62
2023-11-30T01:10:10.080Z,3.60
2023-11-30T01:12:37.193Z,3.54
2023-11-30T01:15:05.507Z,3.52
2023-11-30T01:22:26.856Z,3.64
2023-11-30T01:24:53.847Z,3.70
2023-11-30T01:27:20.893Z,3.70
2023-11-30T01:29:48.175Z,3.76
2023-11-30T01:32:15.669Z,3.77
2023-11-30T01:34:43.068Z,3.74
2023-11-30T01:37:10.188Z,3.79
2023-11-30T01:42:05.769Z,3.84
2023-11-30T01:44:33.901Z,3.82
2023-11-30T01:47:01.161Z,3.80
2023-11-30T01:49:28.649Z,3.78
2023-11-30T01:51:55.730Z,3.78
2023-11-30T01:54:22.645Z,3.73
2023-11-30T01:56:50.072Z,3.70
2023-11-30T01:59:17.205Z,3.59
2023-11-30T02:01:44.377Z,3.57
2023-11-30T02:04:14.464Z,3.56
2023-11-30T02:06:41.611Z,3.61
2023-11-30T02:09:08.754Z,3.60
2023-11-30T02:16:30.722Z,3.54
2023-11-30T02:18:58.061Z,3.51
2023-11-30T02:23:51.345Z,3.57
2023-11-30T02:26:18.843Z,3.53
2023-11-30T02:28:46.134Z,3.50
2023-11-30T02:31:13.447Z,3.49
2023-11-30T02:33:40.531Z,3.49
2023-11-30T02:36:08.201Z,3.50
2023-11-30T02:38:35.237Z,3.49
2023-11-30T02:41:02.445Z,3.44
2023-11-30T02:43:31.325Z,3.40
2023-11-30T02:45:58.482Z,3.42
2023-11-30T02:48:25.493Z,3.37
2023-11-30T02:50:52.728Z,3.35
2023-11-30T02:53:19.831Z,3.35
2023-11-30T02:55:46.847Z,3.36
2023-11-30T02:58:13.900Z,3.36
2023-11-30T03:00:40.948Z,3.42
2023-11-30T03:03:08.066Z,3.42
2023-11-30T03:05:35.138Z,3.36
2023-11-30T03:08:02.200Z,3.39
2023-11-30T03:10:29.277Z,3.33
2023-11-30T03:12:56.305Z,3.26
2023-11-30T03:15:24.292Z,3.26
2023-11-30T03:17:51.457Z,3.23
2023-11-30T03:20:18.603Z,3.19
2023-11-30T03:22:45.631Z,3.23
2023-11-30T03:25:12.702Z,3.26
2023-11-30T03:27:39.818Z,3.30
2023-11-30T03:30:07.328Z,3.28
2023-11-30T03:32:34.508Z,3.26
2023-11-30T03:35:01.501Z,3.29
2023-11-30T03:37:28.574Z,3.26
2023-11-30T03:39:55.611Z,3.18
2023-11-30T03:42:22.712Z,3.08
2023-11-30T03:44:49.611Z,2.95
2023-11-30T03:47:16.655Z,2.98
2023-11-30T03:49:43.781Z,2.92
2023-11-30T03:52:10.773Z,2.92
2023-11-30T03:54:37.892Z,2.94
2023-11-30T03:57:05.175Z,2.90
2023-11-30T03:59:32.813Z,2.83
2023-11-30T04:02:00.090Z,2.79
2023-11-30T04:06:54.252Z,2.76
2023-11-30T04:09:21.308Z,2.77
2023-11-30T04:11:48.260Z,2.77
2023-11-30T04:14:15.342Z,2.78
2023-11-30T04:16:42.449Z,2.80
2023-11-30T04:19:09.939Z,2.73
2023-11-30T04:21:37.037Z,2.70
2023-11-30T04:24:04.379Z,2.68
2023-11-30T04:26:31.430Z,2.69
2023-11-30T04:31:23.956Z,2.66
2023-11-30T04:36:17.953Z,2.69
2023-11-30T04:43:38.944Z,2.62
2023-11-30T04:46:06.238Z,2.53
2023-11-30T04:48:33.284Z,2.53
2023-11-30T04:51:00.460Z,2.49
2023-11-30T04:53:27.640Z,2.45
2023-11-30T04:55:54.703Z,2.42
2023-11-30T04:58:21.745Z,2.47
2023-11-30T05:00:49.498Z,2.47
2023-11-30T05:03:16.617Z,2.53
2023-11-30T05:05:43.861Z,2.56
2023-11-30T05:08:12.365Z,2.59
2023-11-30T05:10:40.034Z,2.63
2023-11-30T05:13:07.339Z,2.59
2023-11-30T05:15:39.713Z,2.61
2023-11-30T05:18:07.122Z,2.58
2023-11-30T05:20:34.975Z,2.54
2023-11-30T05:25:31.074Z,2.50
2023-11-30T05:27:59.136Z,2.45
2023-11-30T05:30:26.564Z,2.49
2023-11-30T05:32:53.718Z,2.54
2023-11-30T05:35:20.946Z,2.55
2023-11-30T05:42:41.936Z,2.50
2023-11-30T05:45:09.474Z,2.48
2023-11-30T05:47:37.117Z,2.47
2023-11-30T05:50:06.155Z,2.37
2023-11-30T05:54:59.999Z,2.28
2023-11-30T05:59:53.913Z,2.20
2023-11-30T06:02:22.980Z,2.15
2023-11-30T06:04:51.832Z,2.20
2023-11-30T06:09:44.951Z,2.06
2023-11-30T06:12:12.723Z,2.12
2023-11-30T06:14:39.786Z,2.15
2023-11-30T06:22:01.222Z,2.15
2023-11-30T06:26:54.270Z,2.18
2023-11-30T06:29:21.578Z,2.04
2023-11-30T06:31:48.864Z,2.05
2023-11-30T06:34:15.886Z,2.08
2023-11-30T06:36:42.875Z,2.13
2023-11-30T06:39:09.956Z,2.18
2023-11-30T06:41:36.990Z,2.21
2023-11-30T06:44:04.150Z,2.25
2023-11-30T06:46:31.214Z,2.25
2023-11-30T06:53:53.939Z,2.04
2023-11-30T06:56:20.927Z,2.01
2023-11-30T06:58:49.288Z,1.96
2023-11-30T07:01:16.408Z,2.02
2023-11-30T07:03:44.376Z,2.05
2023-11-30T07:06:11.910Z,2.06
2023-11-30T07:08:38.931Z,2.15
2023-11-30T07:11:09.638Z,2.23
2023-11-30T07:13:36.647Z,2.22
2023-11-30T07:16:03.753Z,2.27
2023-11-30T07:18:31.412Z,2.32
2023-11-30T07:20:58.525Z,2.34
2023-11-30T07:23:25.813Z,2.40
2023-11-30T07:25:52.712Z,2.37
2023-11-30T07:28:19.978Z,2.36
2023-11-30T07:30:48.201Z,2.39
2023-11-30T07:33:15.339Z,2.38
2023-11-30T07:35:42.425Z,2.32
2023-11-30T07:38:09.520Z,2.35
2023-11-30T07:40:36.680Z,2.40
2023-11-30T07:43:03.806Z,2.35
2023-11-30T07:47:58.214Z,2.42
2023-11-30T07:50:28.800Z,2.43
2023-11-30T07:55:24.678Z,2.43
2023-11-30T07:57:52.159Z,2.44
2023-11-30T08:00:19.760Z,2.50
2023-11-30T08:02:46.758Z,2.51
2023-11-30T08:05:14.020Z,2.58
2023-11-30T08:07:41.293Z,2.66
2023-11-30T08:10:08.793Z,2.67
2023-11-30T08:12:36.143Z,2.79
2023-11-30T08:15:03.438Z,2.86
2023-11-30T08:17:42.905Z,2.93
2023-11-30T08:20:15.379Z,2.89
2023-11-30T08:22:42.786Z,2.85
2023-11-30T08:25:10.045Z,2.82
2023-11-30T08:27:48.178Z,2.81
2023-11-30T08:32:52.657Z,2.82
2023-11-30T08:35:19.703Z,2.89
2023-11-30T08:37:46.715Z,2.93
2023-11-30T08:40:20.700Z,2.90
2023-11-30T08:45:16.234Z,2.91
2023-11-30T08:50:12.310Z,2.99
2023-11-30T08:52:39.352Z,3.06
2023-11-30T08:55:06.430Z,3.10
2023-11-30T08:57:33.575Z,3.17
2023-11-30T09:00:00.796Z,3.16
2023-11-30T09:02:28.485Z,3.23
2023-11-30T09:04:55.772Z,3.28
2023-11-30T09:07:22.798Z,3.33
2023-11-30T09:09:51.602Z,3.32
2023-11-30T09:12:19.268Z,3.36
2023-11-30T09:14:46.412Z,3.35
2023-11-30T09:17:13.969Z,3.45
2023-11-30T09:19:41.074Z,3.44
2023-11-30T09:22:09.334Z,3.51
2023-11-30T09:24:36.658Z,3.56
2023-11-30T09:27:04.324Z,3.51
2023-11-30T09:29:31.838Z,3.44
2023-11-30T09:32:00.785Z,3.51
2023-11-30T09:39:21.281Z,3.38
2023-11-30T09:41:48.499Z,3.44
2023-11-30T09:44:16.158Z,3.55
2023-11-30T09:47:00.624Z,3.61
2023-11-30T09:49:50.525Z,3.71
2023-11-30T09:52:41.263Z,4.04
2023-11-30T09:58:19.189Z,4.03
2023-11-30T10:00:53.192Z,4.04
2023-11-30T10:03:41.755Z,4.07
2023-11-30T10:06:19.196Z,4.16
2023-11-30T10:08:53.259Z,4.22
2023-11-30T10:11:24.400Z,4.23
2023-11-30T10:14:13.876Z,4.25
2023-11-30T10:16:48.794Z,4.34
2023-11-30T10:19:17.679Z,4.30
2023-11-30T10:21:54.802Z,4.28
2023-11-30T10:24:31.555Z,4.33
2023-11-30T10:27:08.549Z,4.37
2023-11-30T10:29:54.189Z,4.40
2023-11-30T10:32:27.694Z,4.48
2023-11-30T10:35:05.461Z,4.52
2023-11-30T10:37:57.370Z,4.53
2023-11-30T10:40:26.066Z,4.52
2023-11-30T10:42:52.834Z,4.58
2023-11-30T10:45:21.230Z,4.61
2023-11-30T10:47:49.236Z,4.61
2023-11-30T10:50:16.984Z,4.65
2023-11-30T10:52:44.685Z,4.63
2023-11-30T10:55:17.849Z,4.66
2023-11-30T10:57:45.662Z,4.68
2023-11-30T11:00:13.901Z,4.76
2023-11-30T11:02:50.796Z,4.80
2023-11-30T11:05:22.266Z,4.87
2023-11-30T11:07:51.262Z,4.94
2023-11-30T11:10:25.101Z,4.99
2023-11-30T11:12:52.577Z,5.04
2023-11-30T11:15:23.626Z,5.09
2023-11-30T11:17:51.725Z,5.13
2023-11-30T11:20:26.758Z,5.24
2023-11-30T11:22:58.087Z,5.25
2023-11-30T11:25:28.317Z,5.34
2023-11-30T11:27:56.281Z,5.41
2023-11-30T11:30:28.206Z,5.43
2023-11-30T11:33:00.152Z,5.45
2023-11-30T11:35:31.694Z,5.48
2023-11-30T11:37:59.594Z,5.49
2023-11-30T11:40:29.713Z,5.50
2023-11-30T11:42:56.573Z,5.56
2023-11-30T11:45:23.468Z,5.54
2023-11-30T11:47:50.386Z,5.54
2023-11-30T11:50:17.299Z,5.63
2023-11-30T11:52:44.643Z,5.69
2023-11-30T11:55:12.688Z,5.75
2023-11-30T11:57:40.326Z,5.79
2023-11-30T12:00:11.805Z,5.79
2023-11-30T12:02:38.634Z,5.69
2023-11-30T12:05:13.408Z,5.72
2023-11-30T12:07:49.686Z,5.83
2023-11-30T12:10:29.659Z,5.92
2023-11-30T12:12:57.125Z,5.96
2023-11-30T12:15:24.061Z,6.07
2023-11-30T12:17:51.021Z,6.15
2023-11-30T12:20:21.013Z,6.12
2023-11-30T12:22:48.018Z,6.11
2023-11-30T12:25:15.025Z,6.11
2023-11-30T12:27:42.145Z,6.06
2023-11-30T12:30:10.229Z,6.07
2023-11-30T12:32:38.909Z,6.10
2023-11-30T12:35:06.713Z,6.08
2023-11-30T12:37:34.419Z,6.07
2023-11-30T12:40:01.255Z,6.14
2023-11-30T12:42:28.419Z,6.13
2023-11-30T12:44:55.190Z,6.06
2023-11-30T12:47:22.865Z,6.16
2023-11-30T12:49:50.335Z,6.20
2023-11-30T12:52:17.167Z,6.23
2023-11-30T12:54:45.691Z,6.28
2023-11-30T12:57:12.472Z,6.31
2023-11-30T12:59:39.625Z,6.31
2023-11-30T13:02:07.723Z,6.31
2023-11-30T13:04:35.334Z,6.31
2023-11-30T13:07:02.635Z,6.22
2023-11-30T13:09:33.820Z,6.26
2023-11-30T13:12:00.902Z,6.28
2023-11-30T13:14:28.543Z,6.33
2023-11-30T13:16:55.752Z,6.44
2023-11-30T13:19:24.761Z,6.49
2023-11-30T13:21:53.026Z,6.54
2023-11-30T13:24:20.572Z,6.59
2023-11-30T13:26:49.389Z,6.61
2023-11-30T13:29:17.346Z,6.58
2023-11-30T13:31:44.671Z,6.52
2023-11-30T13:34:11.494Z,6.47
2023-11-30T13:36:38.388Z,6.48
2023-11-30T13:39:09.268Z,6.50
2023-11-30T13:41:36.034Z,6.53
2023-11-30T13:44:02.821Z,6.56
2023-11-30T13:46:29.646Z,6.58
2023-11-30T13:49:08.452Z,6.59
2023-11-30T13:51:35.216Z,6.64
2023-11-30T13:54:02.664Z,6.66
2023-11-30T13:56:30.262Z,6.71
2023-11-30T13:59:00.542Z,6.71
2023-11-30T14:01:28.827Z,6.76
2023-11-30T14:03:55.664Z,6.82
2023-11-30T14:06:22.542Z,6.82
2023-11-30T14:08:49.377Z,6.85
2023-11-30T14:11:16.271Z,6.83
2023-11-30T14:13:43.487Z,6.79
2023-11-30T14:16:11.200Z,6.80
2023-11-30T14:18:38.033Z,6.72
2023-11-30T14:21:04.927Z,6.67
2023-11-30T14:23:31.704Z,6.73
2023-11-30T14:25:58.921Z,6.75
2023-11-30T14:28:28.038Z,6.71
2023-11-30T14:30:54.955Z,6.69
2023-11-30T14:33:21.938Z,6.67
2023-11-30T14:35:55.363Z,6.69
2023-11-30T14:38:22.789Z,6.68
2023-11-30T14:40:49.511Z,6.66
2023-11-30T14:43:16.446Z,6.62
2023-11-30T14:45:44.339Z,6.60
2023-11-30T14:48:11.126Z,6.58
2023-11-30T14:50:38.755Z,6.60
2023-11-30T14:53:06.126Z,6.59
2023-11-30T14:55:33.636Z,6.60
2023-11-30T14:58:00.576Z,6.62
2023-11-30T15:00:28.682Z,6.62
2023-11-30T15:02:55.591Z,6.63
2023-11-30T15:05:22.605Z,6.66
2023-11-30T15:07:49.523Z,6.63
2023-11-30T15:10:16.332Z,6.66
2023-11-30T15:12:43.345Z,6.58
2023-11-30T15:15:14.467Z,6.57
2023-11-30T15:17:43.343Z,6.60
2023-11-30T15:20:12.117Z,6.60
2023-11-30T15:22:41.410Z,6.56
2023-11-30T15:25:10.504Z,6.54
2023-11-30T15:27:42.380Z,6.54
2023-11-30T15:30:09.743Z,6.54
2023-11-30T15:32:37.160Z,6.58
2023-11-30T15:35:04.066Z,6.53
2023-11-30T15:37:32.603Z,6.50
2023-11-30T15:39:59.471Z,6.46
2023-11-30T15:42:27.124Z,6.44
2023-11-30T15:44:53.906Z,6.43
2023-11-30T15:47:20.907Z,6.40
2023-11-30T15:49:47.807Z,6.38
2023-11-30T15:52:15.555Z,6.35
2023-11-30T15:54:42.573Z,6.38
2023-11-30T15:57:09.440Z,6.33
2023-11-30T15:59:36.379Z,6.35
2023-11-30T16:02:05.079Z,6.35
2023-11-30T16:04:35.274Z,6.34
2023-11-30T16:07:04.588Z,6.33
2023-11-30T16:09:36.834Z,6.30
2023-11-30T16:12:06.403Z,6.26
2023-11-30T16:14:35.832Z,6.17
2023-11-30T16:17:05.240Z,6.16
2023-11-30T16:19:34.349Z,6.17
2023-11-30T16:22:01.141Z,6.14
2023-11-30T16:24:28.970Z,6.15
2023-11-30T16:26:57.656Z,6.13
2023-11-30T16:29:25.136Z,6.15
2023-11-30T16:31:51.956Z,6.09
2023-11-30T16:34:20.959Z,6.01
2023-11-30T16:36:48.764Z,6.01
2023-11-30T16:39:17.488Z,5.99
2023-11-30T16:41:44.292Z,6.02
2023-11-30T16:44:11.454Z,6.01
2023-11-30T16:46:38.965Z,5.94
2023-11-30T16:49:13.411Z,5.91
2023-11-30T16:51:46.581Z,5.93
2023-11-30T16:54:16.171Z,5.91
2023-11-30T16:56:43.087Z,5.93
2023-11-30T16:59:14.794Z,5.91
2023-11-30T17:01:41.777Z,5.90
2023-11-30T17:04:08.882Z,5.86
2023-11-30T17:06:35.812Z,5.91
2023-11-30T17:09:02.758Z,5.75
2023-11-30T17:11:29.989Z,5.83
2023-11-30T17:13:57.471Z,5.78
2023-11-30T17:16:24.530Z,5.76
2023-11-30T17:18:51.484Z,5.80
2023-11-30T17:21:19.385Z,5.75
2023-11-30T17:23:46.259Z,5.64
2023-11-30T17:26:13.104Z,5.62
2023-11-30T17:28:39.994Z,5.59
2023-11-30T17:31:07.050Z,5.54
2023-11-30T17:33:34.883Z,5.51
2023-11-30T17:36:01.763Z,5.56
2023-11-30T17:38:28.562Z,5.51
2023-11-30T17:40:55.398Z,5.49
2023-11-30T17:43:22.218Z,5.50
2023-11-30T17:45:50.517Z,5.50
2023-11-30T17:48:18.426Z,5.50
2023-11-30T17:50:45.262Z,5.54
2023-11-30T17:53:12.031Z,5.53
2023-11-30T17:55:40.701Z,5.49
2023-11-30T17:58:07.464Z,5.45
2023-11-30T18:00:34.379Z,5.50
2023-11-30T18:03:01.225Z,5.47
2023-11-30T18:05:28.015Z,5.49
2023-11-30T18:07:54.780Z,5.42
2023-11-30T18:10:21.583Z,5.42
2023-11-30T18:12:48.414Z,5.38
2023-11-30T18:15:15.290Z,5.40
2023-11-30T18:17:42.200Z,5.37
2023-11-30T18:20:09.223Z,5.33
2023-11-30T18:22:36.091Z,5.34
2023-11-30T18:25:02.888Z,5.33
2023-11-30T18:27:29.795Z,5.37
2023-11-30T18:29:56.894Z,5.29
2023-11-30T18:32:23.761Z,5.26
2023-11-30T18:34:50.628Z,5.21
2023-11-30T18:37:17.734Z,5.18
2023-11-30T18:39:44.576Z,5.15
2023-11-30T18:42:11.389Z,5.15
2023-11-30T18:44:38.155Z,5.20
2023-11-30T18:47:05.033Z,5.21
2023-11-30T18:49:32.029Z,5.23
2023-11-30T18:51:59.022Z,5.24
2023-11-30T18:54:25.830Z,5.22
2023-11-30T18:56:52.560Z,5.19
2023-11-30T18:59:22.291Z,5.18
2023-11-30T19:01:49.097Z,5.17
2023-11-30T19:04:16.217Z,5.21
2023-11-30T19:06:43.327Z,5.26
2023-11-30T19:09:10.979Z,5.19
2023-11-30T19:11:37.805Z,5.20
2023-11-30T19:14:04.546Z,5.16
2023-11-30T19:16:31.428Z,5.13
2023-11-30T19:19:01.886Z,5.02
2023-11-30T19:21:29.291Z,4.90
2023-11-30T19:23:58.942Z,4.89
2023-11-30T19:26:25.724Z,4.86
2023-11-30T19:28:52.520Z,4.89
2023-11-30T19:31:19.323Z,4.90
2023-11-30T19:33:46.331Z,4.97
2023-11-30T19:36:13.257Z,4.94
2023-11-30T19:38:39.977Z,4.99
2023-11-30T19:41:08.306Z,4.97
2023-11-30T19:43:35.222Z,4.90
2023-11-30T19:46:03.258Z,4.83
2023-11-30T19:48:30.533Z,4.77
2023-11-30T19:50:57.488Z,4.69
2023-11-30T19:53:24.353Z,4.67
2023-11-30T19:55:51.110Z,4.59
2023-11-30T19:58:17.997Z,4.62
2023-11-30T20:00:45.591Z,4.58
2023-11-30T20:03:12.826Z,4.56
2023-11-30T20:05:46.360Z,4.56
2023-11-30T20:08:13.432Z,4.56
2023-11-30T20:10:40.284Z,4.61
2023-11-30T20:13:07.102Z,4.55
2023-11-30T20:15:36.646Z,4.53
2023-11-30T20:18:05.289Z,4.52
2023-11-30T20:20:32.116Z,4.52
2023-11-30T20:22:59.798Z,4.47
2023-11-30T20:25:26.605Z,4.47
2023-11-30T20:27:53.537Z,4.47
2023-11-30T20:30:20.338Z,4.44
2023-11-30T20:32:47.310Z,4.44
2023-11-30T20:35:14.149Z,4.43
2023-11-30T20:37:40.993Z,4.48
2023-11-30T20:40:08.067Z,4.49
2023-11-30T20:42:34.924Z,4.56
2023-11-30T20:45:01.928Z,4.61
2023-11-30T20:47:28.750Z,4.64
2023-11-30T20:49:55.597Z,4.62
2023-11-30T20:52:22.352Z,4.63
2023-11-30T20:54:49.179Z,4.57
2023-11-30T20:57:19.068Z,4.54
2023-11-30T20:59:45.839Z,4.51
2023-11-30T21:02:14.415Z,4.53
2023-11-30T21:04:41.321Z,4.48
2023-11-30T21:07:08.135Z,4.51
2023-11-30T21:09:34.997Z,4.50
2023-11-30T21:12:01.793Z,4.46
2023-11-30T21:14:28.652Z,4.44
2023-11-30T21:16:55.628Z,4.43
2023-11-30T21:19:22.514Z,4.43
2023-11-30T21:21:49.340Z,4.43
2023-11-30T21:24:16.360Z,4.53
2023-11-30T21:26:43.384Z,4.49
2023-11-30T21:29:16.399Z,4.46
2023-11-30T21:31:43.231Z,4.42
2023-11-30T21:34:10.361Z,4.44
2023-11-30T21:36:43.354Z,4.38
2023-11-30T21:39:13.094Z,4.40
2023-11-30T21:41:39.864Z,4.41
2023-11-30T21:44:06.772Z,4.37
2023-11-30T21:46:37.113Z,4.41
2023-11-30T21:49:04.729Z,4.42
2023-11-30T21:51:32.473Z,4.38
2023-11-30T21:54:01.279Z,4.41
2023-11-30T21:56:28.183Z,4.36
2023-11-30T21:58:57.819Z,4.29
2023-11-30T22:01:24.723Z,4.26
2023-11-30T22:03:51.869Z,4.28
2023-11-30T22:06:18.661Z,4.28
2023-11-30T22:08:46.514Z,4.22
2023-11-30T22:11:13.328Z,4.18
2023-11-30T22:13:40.060Z,4.18
2023-11-30T22:16:11.944Z,4.16
2023-11-30T22:18:40.778Z,4.20
2023-11-30T22:21:07.712Z,4.23
2023-11-30T22:23:34.543Z,4.20
2023-11-30T22:26:04.366Z,4.19
2023-11-30T22:28:31.679Z,4.17
2023-11-30T22:30:58.607Z,4.17
2023-11-30T22:33:25.449Z,4.16
2023-11-30T22:35:52.387Z,4.18
2023-11-30T22:38:19.138Z,4.18
2023-11-30T22:40:45.935Z,4.17
2023-11-30T22:43:12.861Z,4.19
2023-11-30T22:45:39.697Z,4.19
2023-11-30T22:48:06.435Z,4.21
2023-11-30T22:50:33.483Z,4.22
2023-11-30T22:53:00.589Z,4.19
2023-11-30T22:55:27.687Z,4.17
2023-11-30T22:57:54.596Z,4.17
2023-11-30T23:00:22.803Z,4.17
2023-11-30T23:02:49.918Z,4.20
2023-11-30T23:05:17.802Z,4.19
2023-11-30T23:07:44.765Z,4.15
2023-11-30T23:10:13.716Z,4.15
2023-11-30T23:12:41.230Z,4.14
2023-11-30T23:15:09.420Z,4.13
2023-11-30T23:17:36.329Z,4.10
2023-11-30T23:20:03.105Z,4.05
2023-11-30T23:22:29.918Z,4.01
2023-11-30T23:24:56.770Z,4.02
2023-11-30T23:27:23.490Z,4.00
2023-11-30T23:29:50.375Z,4.10
2023-11-30T23:32:17.197Z,4.10
2023-11-30T23:34:45.262Z,4.02
2023-11-30T23:37:12.208Z,3.98
2023-11-30T23:39:39.046Z,3.92
2023-11-30T23:42:06.171Z,3.96
2023-11-30T23:44:32.984Z,3.93
2023-11-30T23:46:59.826Z,3.87
2023-11-30T23:49:26.666Z,3.86
2023-11-30T23:51:53.420Z,3.86
2023-11-30T23:54:21.019Z,3.86
2023-11-30T23:56:48.294Z,3.84
2023-11-30T23:59:15.154Z,3.87
